Selfridge Angb Airport
KMTC : now visible

Airfield :











YOU CAN JOIN US ON...

 
LOGIN :

Register | Disclaimer

   EN    FR    IT 

 









Legend :    VFR   Marginal VFR   IFR   Intensive IFR   Very Intensive IFR
Visi :
Ceiling :
>= 8 km
>= 3000ft
5 to 8 km
1000 to 3000 ft
1500m to 5 km
500 to 1000 ft
800 to 1500m
200 to 500 ft
< 800m
< 200 ft
Symbols :   Thunderstorms  Fog  Heavy snow  Heavy precipitations  Wind > 20 kt






- Airport Elevation : 580 ft


KMTC - Selfridge Angb

CURRENT METAR :
  • 061456Z 33015G25KT 10SM BKN015 03/00 A3001 RMK AO2A PRESRR SLP173 T00250002 52040

EXPIRED METARs :
  • 061356Z 33013G20KT 10SM BKN015 OVC023 04/03 A2995 RMK AO2A SLP152 T00390027
  • 061311Z 31011G16KT 10SM BKN019 OVC031 05/03 A2991 RMK AO2A SLP138
  • 061256Z 29007KT 10SM FEW022 OVC031 05/02 A2990 RMK AO2A SLP135 T00450024

TAF AMD TAF KMTC
Valid from the 06 at 12:00 until the 07 at 15:00 UTC


061205Z 0612/0715 27009KT 9999 SCT040 OVC080 620807 QNH2988INS
BECMG 0613/0615 26010G18KT 9999 SCT004 BKN015 620154 QNH2991INS
BECMG 0615/0616 32012G25KT 9999 SCT020 QNH3002INS
BECMG 0620/0621 31009KT 9999 FEW030 SCT200 QNH3018INS TX05/0617Z TNM02/0708Z



MET'MAP, your aeronautical weather chart ! - Copyright ORBIFLY December 2007 - Disclaimer

ORBIFLY MET'MAP TEAM :

Programming & Development : Alexandra Zaïnal
Concept & original design : Baudouin d'Aumeries
Assistance for programming : Marc-Olivier Méhu
Technical & hardware support : Manuel Goepfert

Contact : metmap@orbifly.com




SOURCES & CREDITS :

   NOAA       Earth
Advisory